Time;durP1;ratioP1;P1;durP2;ratioP2;P2;SDS_P1;SDS_P2;PMS_P1;PMS_P2;Temp;Humidity;BMP_temperature;BMP_pressure;BME280_temperature;BME280_humidity;BME280_pressure;Samples;Min_cycle;Max_cycle;Signal;HPM_P1;HPM_P2
2022/06/02 00:01:33;;;;;;;4.18;2.67;;;;;;;;;;5036331;28;20141;-85
2022/06/02 00:04:08;;;;;;;5.30;2.80;;;;;;;;;;5053935;28;20080;-84
2022/06/02 00:06:39;;;;;;;2.53;2.40;;;;;;;;;;5036518;28;20045;-84
2022/06/02 00:09:11;;;;;;;3.78;3.00;;;;;;;;;;5053246;28;20048;-84
2022/06/02 00:11:51;;;;;;;2.80;2.70;;;;;;;;;;5054004;28;20088;-84
2022/06/02 00:14:18;;;;;;;3.22;3.03;;;;;;;;;;5036032;28;20592;-84
2022/06/02 00:17:03;;;;;;;3.60;3.22;;;;;;;;;;5053873;28;20405;-85
2022/06/02 00:19:43;;;;;;;4.03;3.05;;;;;;;;;;5036049;28;20132;-84
2022/06/02 00:22:16;;;;;;;3.35;3.15;;;;;;;;;;5053655;28;20107;-85
2022/06/02 00:24:54;;;;;;;3.28;3.10;;;;;;;;;;5035841;28;20131;-85
2022/06/02 00:27:26;;;;;;;4.18;3.45;;;;;;;;;;5036038;28;20049;-85
2022/06/02 00:30:13;;;;;;;3.80;3.55;;;;;;;;;;5036020;28;20120;-85
2022/06/02 00:32:47;;;;;;;3.50;3.40;;;;;;;;;;5035710;28;20053;-84
2022/06/02 00:35:33;;;;;;;3.38;3.08;;;;;;;;;;5053316;28;20560;-84
2022/06/02 00:38:04;;;;;;;3.20;3.00;;;;;;;;;;5054032;28;20051;-85
2022/06/02 00:40:32;;;;;;;3.17;2.67;;;;;;;;;;5056083;28;20149;-84
2022/06/02 00:42:59;;;;;;;3.33;3.10;;;;;;;;;;5035903;28;20080;-85
2022/06/02 00:45:26;;;;;;;4.28;3.88;;;;;;;;;;5052755;28;20051;-84
2022/06/02 00:48:11;;;;;;;3.70;3.50;;;;;;;;;;5053471;28;20064;-85
2022/06/02 00:50:45;;;;;;;4.05;3.85;;;;;;;;;;5053332;28;20496;-85
2022/06/02 00:53:32;;;;;;;4.05;3.75;;;;;;;;;;5053290;28;20063;-84
2022/06/02 00:58:51;;;;;;;3.40;3.20;;;;;;;;;;5052655;28;20059;-84
2022/06/02 01:01:25;;;;;;;4.05;3.75;;;;;;;;;;5052842;28;20135;-85
2022/06/02 01:03:54;;;;;;;4.70;3.55;;;;;;;;;;5035145;28;20132;-84
2022/06/02 01:06:23;;;;;;;5.65;4.40;;;;;;;;;;5053008;28;20052;-85
2022/06/02 01:08:53;;;;;;;3.90;3.50;;;;;;;;;;5035187;28;20474;-84
2022/06/02 01:11:30;;;;;;;3.55;3.40;;;;;;;;;;5035640;28;20053;-84
2022/06/02 01:14:16;;;;;;;4.20;3.90;;;;;;;;;;5036274;28;20401;-85
2022/06/02 01:17:22;;;;;;;4.25;4.05;;;;;;;;;;5035163;28;20118;-84
2022/06/02 01:19:59;;;;;;;6.60;4.15;;;;;;;;;;4936805;29;20060;-84
2022/06/02 01:22:44;;;;;;;4.55;4.20;;;;;;;;;;4936950;29;20137;-84
2022/06/02 01:25:30;;;;;;;6.80;6.18;;;;;;;;;;5020444;28;20041;-85
2022/06/02 01:28:15;;;;;;;6.22;4.82;;;;;;;;;;5052764;28;20503;-86
2022/06/02 01:31:08;;;;;;;4.82;4.53;;;;;;;;;;5035093;28;20505;-84
2022/06/02 01:33:45;;;;;;;4.30;4.00;;;;;;;;;;5052586;28;20085;-86
2022/06/02 01:36:22;;;;;;;3.83;3.63;;;;;;;;;;5052616;28;20477;-86
2022/06/02 01:38:55;;;;;;;4.10;3.90;;;;;;;;;;5035221;28;20084;-85
2022/06/02 01:41:29;;;;;;;4.27;4.07;;;;;;;;;;5052560;28;20140;-86
2022/06/02 01:44:03;;;;;;;4.20;3.90;;;;;;;;;;5035078;28;20055;-86
2022/06/02 01:46:45;;;;;;;3.83;3.55;;;;;;;;;;5035232;28;20087;-86
2022/06/02 01:49:13;;;;;;;4.10;3.90;;;;;;;;;;5035014;28;20156;-85
2022/06/02 01:51:57;;;;;;;4.05;3.75;;;;;;;;;;5034841;28;20049;-85
2022/06/02 01:54:40;;;;;;;4.57;4.28;;;;;;;;;;5034996;28;20144;-86
2022/06/02 01:57:17;;;;;;;4.18;3.97;;;;;;;;;;5037905;28;20131;-84
2022/06/02 02:00:02;;;;;;;4.82;4.53;;;;;;;;;;5034544;28;20132;-84
2022/06/02 02:02:33;;;;;;;4.55;4.25;;;;;;;;;;5052411;28;20049;-86
2022/06/02 02:05:23;;;;;;;3.88;3.67;;;;;;;;;;5034739;28;20068;-84
2022/06/02 02:07:50;;;;;;;4.88;4.57;;;;;;;;;;5034648;28;20052;-84
2022/06/02 02:10:26;;;;;;;4.55;4.25;;;;;;;;;;5034670;28;20501;-85
2022/06/02 02:13:02;;;;;;;4.60;4.30;;;;;;;;;;5052030;28;20055;-84
2022/06/02 02:15:50;;;;;;;4.20;4.00;;;;;;;;;;5055783;28;20516;-84
2022/06/02 02:18:20;;;;;;;4.78;4.57;;;;;;;;;;5038291;28;20049;-84
2022/06/02 02:20:53;;;;;;;4.90;4.50;;;;;;;;;;5038084;28;20139;-85
2022/06/02 02:23:32;;;;;;;4.15;3.85;;;;;;;;;;5055804;28;20468;-84
2022/06/02 02:26:02;;;;;;;4.60;4.25;;;;;;;;;;5038554;28;20076;-86
2022/06/02 02:28:51;;;;;;;5.18;4.65;;;;;;;;;;5055694;28;20037;-84
2022/06/02 02:31:34;;;;;;;5.68;5.07;;;;;;;;;;5038148;28;20567;-85
2022/06/02 02:34:04;;;;;;;4.35;4.15;;;;;;;;;;5055639;28;20048;-86
2022/06/02 02:36:37;;;;;;;5.03;4.50;;;;;;;;;;5055502;28;20053;-86
2022/06/02 02:39:10;;;;;;;4.68;4.38;;;;;;;;;;5038386;28;20551;-86
2022/06/02 02:41:56;;;;;;;4.05;3.75;;;;;;;;;;5037782;28;20568;-86
2022/06/02 02:44:28;;;;;;;4.88;4.07;;;;;;;;;;5055195;28;20147;-87
2022/06/02 02:47:02;;;;;;;5.95;4.72;;;;;;;;;;5037989;28;20339;-86
2022/06/02 02:49:48;;;;;;;5.00;4.68;;;;;;;;;;5055268;28;20110;-87
2022/06/02 02:52:21;;;;;;;5.30;4.80;;;;;;;;;;5055376;28;20528;-87
2022/06/02 02:55:00;;;;;;;4.80;4.50;;;;;;;;;;5055335;28;20560;-85
2022/06/02 02:57:36;;;;;;;5.10;4.70;;;;;;;;;;5055398;28;20072;-85
2022/06/02 03:00:06;;;;;;;4.80;4.38;;;;;;;;;;5055091;28;20053;-85
2022/06/02 03:02:43;;;;;;;5.07;4.75;;;;;;;;;;5037698;28;20059;-86
2022/06/02 03:05:33;;;;;;;5.00;4.60;;;;;;;;;;5054943;28;20394;-86
2022/06/02 03:08:18;;;;;;;8.00;5.70;;;;;;;;;;5055136;28;20053;-87
2022/06/02 03:10:47;;;;;;;5.22;4.63;;;;;;;;;;5037431;28;20148;-87
2022/06/02 03:13:24;;;;;;;7.65;4.68;;;;;;;;;;5055260;28;20516;-87
2022/06/02 03:16:02;;;;;;;4.65;4.35;;;;;;;;;;5037571;28;20077;-86
2022/06/02 03:18:49;;;;;;;4.88;4.57;;;;;;;;;;5037146;28;20616;-84
2022/06/02 03:21:18;;;;;;;4.40;4.10;;;;;;;;;;5037224;28;20048;-87
2022/06/02 03:23:52;;;;;;;5.85;5.28;;;;;;;;;;5054611;28;20051;-87
2022/06/02 03:26:35;;;;;;;5.55;5.05;;;;;;;;;;5036534;28;20560;-85
2022/06/02 03:29:21;;;;;;;5.72;5.22;;;;;;;;;;5037351;28;20138;-85
2022/06/02 03:32:01;;;;;;;7.68;4.90;;;;;;;;;;5054867;28;20060;-87
2022/06/02 03:34:36;;;;;;;5.63;5.13;;;;;;;;;;5054733;28;20536;-87
2022/06/02 03:37:22;;;;;;;6.22;5.13;;;;;;;;;;5037331;28;20045;-87
2022/06/02 03:40:09;;;;;;;5.70;4.80;;;;;;;;;;5036942;28;20044;-86
2022/06/02 03:42:44;;;;;;;5.65;4.75;;;;;;;;;;5037124;28;20412;-84
2022/06/02 03:45:27;;;;;;;4.88;4.57;;;;;;;;;;5036981;28;20041;-87
2022/06/02 03:48:05;;;;;;;5.10;4.63;;;;;;;;;;5054238;28;20132;-84
2022/06/02 03:50:44;;;;;;;5.32;4.95;;;;;;;;;;5036729;28;20446;-87
2022/06/02 03:53:30;;;;;;;5.45;5.05;;;;;;;;;;5054308;28;20120;-86
2022/06/02 03:56:05;;;;;;;5.90;5.50;;;;;;;;;;5036302;28;20059;-85
2022/06/02 03:58:39;;;;;;;5.82;5.38;;;;;;;;;;5036056;28;20140;-86
2022/06/02 04:01:09;;;;;;;6.90;6.30;;;;;;;;;;5036339;28;20084;-86
2022/06/02 04:03:45;;;;;;;14.93;9.48;;;;;;;;;;5053996;28;20124;-87
2022/06/02 04:06:12;;;;;;;15.07;10.93;;;;;;;;;;5054139;28;20094;-87
2022/06/02 04:08:46;;;;;;;17.73;12.32;;;;;;;;;;5053933;28;20091;-86
2022/06/02 04:13:37;;;;;;;14.00;9.95;;;;;;;;;;5036288;28;20087;-86
2022/06/02 04:14:29;;;;;;;12.77;9.63;;;;;;;;;;5053719;28;20055;-87
2022/06/02 04:17:01;;;;;;;9.82;7.95;;;;;;;;;;5053961;28;20045;-86
2022/06/02 04:22:57;;;;;;;7.93;7.22;;;;;;;;;;4973225;28;20579;-86
2022/06/02 04:25:45;;;;;;;8.30;7.40;;;;;;;;;;4956760;28;20570;-86
2022/06/02 04:28:42;;;;;;;7.97;7.20;;;;;;;;;;5008474;28;20569;-86
2022/06/02 04:31:18;;;;;;;8.23;7.43;;;;;;;;;;4950899;28;20043;-86
2022/06/02 04:34:04;;;;;;;7.85;6.53;;;;;;;;;;5053582;28;20055;-86
2022/06/02 04:36:37;;;;;;;8.57;7.63;;;;;;;;;;5053195;28;20195;-86
2022/06/02 04:39:11;;;;;;;8.40;7.55;;;;;;;;;;5036131;28;20457;-86
2022/06/02 04:41:46;;;;;;;7.45;6.82;;;;;;;;;;5035823;28;20109;-86
2022/06/02 04:44:32;;;;;;;7.65;6.95;;;;;;;;;;5053196;28;20053;-86
2022/06/02 04:47:07;;;;;;;9.23;8.10;;;;;;;;;;5053365;28;20123;-86
2022/06/02 04:49:40;;;;;;;9.38;7.80;;;;;;;;;;5035665;28;20139;-87
2022/06/02 04:52:10;;;;;;;9.90;9.00;;;;;;;;;;5053297;28;20045;-87
2022/06/02 04:54:57;;;;;;;10.50;9.40;;;;;;;;;;5035629;28;20079;-86
2022/06/02 04:57:36;;;;;;;14.18;11.85;;;;;;;;;;5052876;28;20477;-86
2022/06/02 05:00:27;;;;;;;11.02;9.95;;;;;;;;;;5035302;28;20560;-86
2022/06/02 05:03:04;;;;;;;10.38;9.07;;;;;;;;;;5036179;28;20132;-86
2022/06/02 05:05:39;;;;;;;10.27;9.35;;;;;;;;;;5035138;28;20563;-87
2022/06/02 05:08:12;;;;;;;12.77;11.18;;;;;;;;;;5035133;28;20443;-86
2022/06/02 05:10:47;;;;;;;17.65;15.85;;;;;;;;;;5052738;28;20140;-87
2022/06/02 05:13:14;;;;;;;17.25;15.75;;;;;;;;;;5052786;28;20132;-87
2022/06/02 05:15:47;;;;;;;8.85;8.15;;;;;;;;;;5035046;28;20136;-85
2022/06/02 05:18:14;;;;;;;;;;;;;;;;;;5035747;28;20087;-85
2022/06/02 05:21:03;;;;;;;5.43;3.22;;;;;;;;;;5052832;28;19976;-85
2022/06/02 05:23:45;;;;;;;10.20;2.70;;;;;;;;;;5035373;28;20102;-86
2022/06/02 05:26:42;;;;;;;5.55;2.28;;;;;;;;;;5035256;28;20140;-84
2022/06/02 05:29:09;;;;;;;11.82;2.67;;;;;;;;;;5015168;28;20049;-85
2022/06/02 05:31:47;;;;;;;5.55;1.98;;;;;;;;;;5052723;28;20408;-84
2022/06/02 05:34:26;;;;;;;9.95;2.80;;;;;;;;;;5052720;28;20041;-85
2022/06/02 05:37:13;;;;;;;25.45;7.45;;;;;;;;;;5034817;28;20489;-86
2022/06/02 05:39:51;;;;;;;13.93;4.32;;;;;;;;;;5052657;28;20475;-85
2022/06/02 05:42:43;;;;;;;9.48;2.50;;;;;;;;;;5034972;28;20053;-85
2022/06/02 05:45:16;;;;;;;4.85;2.15;;;;;;;;;;5034744;28;20505;-85
2022/06/02 05:48:02;;;;;;;7.68;1.77;;;;;;;;;;5055592;28;20079;-86
2022/06/02 05:50:33;;;;;;;2.42;1.35;;;;;;;;;;5039616;28;20063;-85
2022/06/02 05:53:06;;;;;;;5.53;1.52;;;;;;;;;;5039162;28;20049;-86
2022/06/02 05:55:36;;;;;;;7.30;1.98;;;;;;;;;;5039267;28;20048;-87
2022/06/02 05:58:22;;;;;;;4.95;1.40;;;;;;;;;;5038708;28;20052;-85
2022/06/02 06:00:55;;;;;;;6.28;1.50;;;;;;;;;;5039364;28;20049;-86
2022/06/02 06:03:36;;;;;;;3.80;2.00;;;;;;;;;;5038582;28;20044;-86
2022/06/02 06:06:21;;;;;;;17.40;5.50;;;;;;;;;;5038474;28;20068;-84
2022/06/02 06:08:57;;;;;;;17.67;3.60;;;;;;;;;;5038237;28;20132;-83
2022/06/02 06:11:30;;;;;;;8.77;1.45;;;;;;;;;;5056281;28;20055;-85
2022/06/02 06:13:58;;;;;;;;;;;;;;;;;;5056374;28;20053;-85
2022/06/02 06:16:33;;;;;;;3.30;1.23;;;;;;;;;;5056046;28;19921;-85
2022/06/02 06:19:09;;;;;;;2.92;1.20;;;;;;;;;;5056198;28;20052;-86
2022/06/02 06:21:49;;;;;;;2.63;1.05;;;;;;;;;;5038527;28;20044;-83
2022/06/02 06:24:42;;;;;;;5.60;1.00;;;;;;;;;;5055793;28;20049;-86
2022/06/02 06:27:09;;;;;;;1.23;0.90;;;;;;;;;;5051763;28;20049;-86
2022/06/02 06:29:57;;;;;;;1.55;0.90;;;;;;;;;;5038163;28;20048;-84
2022/06/02 06:32:47;;;;;;;2.67;1.10;;;;;;;;;;5013522;28;20142;-86
2022/06/02 06:35:32;;;;;;;3.28;1.70;;;;;;;;;;5010037;28;20041;-85
2022/06/02 06:38:12;;;;;;;1.33;1.23;;;;;;;;;;5038232;28;20049;-86
2022/06/02 06:40:54;;;;;;;1.80;1.30;;;;;;;;;;5055603;28;20073;-84
2022/06/02 06:43:32;;;;;;;4.63;1.65;;;;;;;;;;5055342;28;20139;-83
2022/06/02 06:46:05;;;;;;;1.60;1.50;;;;;;;;;;5037591;28;20499;-84
2022/06/02 06:48:37;;;;;;;1.70;1.60;;;;;;;;;;5037661;28;20057;-86
2022/06/02 06:51:23;;;;;;;1.70;1.45;;;;;;;;;;5037855;28;20127;-83
2022/06/02 06:53:59;;;;;;;1.60;1.50;;;;;;;;;;5036307;28;20568;-85
2022/06/02 06:56:35;;;;;;;1.65;1.55;;;;;;;;;;5037572;28;20049;-84
2022/06/02 06:59:21;;;;;;;1.73;1.13;;;;;;;;;;5037600;28;20089;-84
2022/06/02 07:01:58;;;;;;;1.60;1.38;;;;;;;;;;5036281;28;20576;-85
2022/06/02 07:04:33;;;;;;;1.55;1.45;;;;;;;;;;5037586;28;20052;-83
2022/06/02 07:07:00;;;;;;;1.80;1.15;;;;;;;;;;5037761;28;20124;-83
2022/06/02 07:09:30;;;;;;;1.25;1.17;;;;;;;;;;5054741;28;20049;-84
2022/06/02 07:15:14;;;;;;;1.73;1.10;;;;;;;;;;5055346;28;20049;-87
2022/06/02 07:18:00;;;;;;;9.25;2.33;;;;;;;;;;5037562;28;20079;-83
2022/06/02 07:20:48;;;;;;;2.85;1.48;;;;;;;;;;5038748;28;20511;-85
2022/06/02 07:23:23;;;;;;;9.13;1.83;;;;;;;;;;5055133;28;20045;-86
2022/06/02 07:25:59;;;;;;;2.58;1.33;;;;;;;;;;5054723;28;20048;-84
2022/06/02 07:28:36;;;;;;;5.22;1.50;;;;;;;;;;5037628;28;20179;-87
2022/06/02 07:31:19;;;;;;;6.25;1.60;;;;;;;;;;5054772;28;20560;-86
2022/06/02 07:33:49;;;;;;;0.98;0.95;;;;;;;;;;5037459;28;20505;-85
2022/06/02 07:36:32;;;;;;;3.33;1.40;;;;;;;;;;5037293;28;20048;-86
2022/06/02 07:39:18;;;;;;;12.45;2.25;;;;;;;;;;5055436;28;20124;-89
2022/06/02 07:42:03;;;;;;;1.55;1.05;;;;;;;;;;5037819;28;20064;-86
2022/06/02 07:44:30;;;;;;;;;;;;;;;;;;5037429;28;20103;-87
2022/06/02 07:47:13;;;;;;;1.45;1.20;;;;;;;;;;5054935;28;19921;-88
2022/06/02 07:50:10;;;;;;;1.50;1.10;;;;;;;;;;5037340;28;20080;-89
2022/06/02 07:52:59;;;;;;;14.65;4.15;;;;;;;;;;5016998;28;20140;-86
2022/06/02 07:55:32;;;;;;;3.03;1.85;;;;;;;;;;5037041;28;20144;-88
2022/06/02 07:57:59;;;;;;;1.52;1.15;;;;;;;;;;5037334;28;20049;-87
2022/06/02 08:00:31;;;;;;;3.15;1.08;;;;;;;;;;5036833;28;20057;-87
2022/06/02 08:03:14;;;;;;;3.10;1.63;;;;;;;;;;5036995;28;20489;-84
2022/06/02 08:05:48;;;;;;;0.85;0.85;;;;;;;;;;5036646;28;20099;-86
2022/06/02 08:08:21;;;;;;;2.20;1.00;;;;;;;;;;5054502;28;20111;-87
2022/06/02 08:10:56;;;;;;;0.82;0.60;;;;;;;;;;5036849;28;20110;-87
2022/06/02 08:13:28;;;;;;;1.00;1.00;;;;;;;;;;5036657;28;20045;-87
2022/06/02 08:16:01;;;;;;;1.00;1.00;;;;;;;;;;5036077;28;20055;-85
2022/06/02 08:18:45;;;;;;;1.05;0.90;;;;;;;;;;5036287;28;20505;-87
2022/06/02 08:21:31;;;;;;;4.20;1.00;;;;;;;;;;5054344;28;20080;-84
2022/06/02 08:24:07;;;;;;;5.13;1.27;;;;;;;;;;5037266;28;20068;-87
2022/06/02 08:26:46;;;;;;;0.90;0.90;;;;;;;;;;5053664;28;20132;-87
2022/06/02 08:29:25;;;;;;;0.80;0.80;;;;;;;;;;5036809;28;20068;-87
2022/06/02 08:31:55;;;;;;;1.45;0.90;;;;;;;;;;5036083;28;20404;-87
2022/06/02 08:34:44;;;;;;;0.82;0.82;;;;;;;;;;5035474;28;20096;-83
2022/06/02 08:37:20;;;;;;;1.35;0.95;;;;;;;;;;5053790;28;20548;-84
2022/06/02 08:40:03;;;;;;;2.35;0.80;;;;;;;;;;5036176;28;20045;-88
2022/06/02 08:42:42;;;;;;;0.70;0.70;;;;;;;;;;5036045;28;20075;-90
2022/06/02 08:45:15;;;;;;;4.65;1.52;;;;;;;;;;5036214;28;20053;-87
2022/06/02 08:47:54;;;;;;;1.27;0.63;;;;;;;;;;5035714;28;20175;-84
2022/06/02 08:50:40;;;;;;;1.15;0.70;;;;;;;;;;5035401;28;20477;-86
2022/06/02 08:53:23;;;;;;;1.88;0.77;;;;;;;;;;5053163;28;20051;-86
2022/06/02 08:56:09;;;;;;;1.13;0.85;;;;;;;;;;5053101;28;20075;-86
2022/06/02 08:59:03;;;;;;;4.70;1.27;;;;;;;;;;5052936;28;20076;-89
2022/06/02 09:01:36;;;;;;;5.10;1.10;;;;;;;;;;5036049;28;20296;-91
2022/06/02 09:04:10;;;;;;;0.52;0.52;;;;;;;;;;5036550;28;20055;-87
2022/06/02 09:07:02;;;;;;;1.10;0.70;;;;;;;;;;5035591;28;20057;-90
2022/06/02 09:09:29;;;;;;;0.75;0.50;;;;;;;;;;5035752;28;20137;-88
2022/06/02 09:12:06;;;;;;;0.47;0.47;;;;;;;;;;5053094;28;20549;-86
2022/06/02 09:14:36;;;;;;;0.82;0.82;;;;;;;;;;5035164;28;20052;-87
2022/06/02 09:17:25;;;;;;;0.88;0.75;;;;;;;;;;5035073;28;20048;-85
2022/06/02 09:19:59;;;;;;;4.82;4.38;;;;;;;;;;5035673;28;20076;-89
2022/06/02 09:22:40;;;;;;;1.92;1.10;;;;;;;;;;5052807;28;20044;-87
2022/06/02 09:25:16;;;;;;;0.60;0.60;;;;;;;;;;5034937;28;20055;-88
2022/06/02 09:27:55;;;;;;;1.27;0.68;;;;;;;;;;5035451;28;20118;-85
2022/06/02 09:30:50;;;;;;;0.95;0.60;;;;;;;;;;5035390;28;20048;-86
2022/06/02 09:33:43;;;;;;;0.60;0.60;;;;;;;;;;5031273;28;20049;-86
2022/06/02 09:36:39;;;;;;;1.27;0.80;;;;;;;;;;5035550;28;20545;-87
2022/06/02 09:39:24;;;;;;;0.57;0.57;;;;;;;;;;5036150;28;20287;-86
2022/06/02 09:42:10;;;;;;;0.57;0.47;;;;;;;;;;5035846;28;20088;-87
2022/06/02 09:44:52;;;;;;;0.40;0.40;;;;;;;;;;5052725;28;20140;-86
2022/06/02 09:47:43;;;;;;;0.45;0.45;;;;;;;;;;5035557;28;20045;-91
2022/06/02 09:50:29;;;;;;;0.52;0.52;;;;;;;;;;4991459;28;20059;-89
2022/06/02 09:53:11;;;;;;;0.50;0.50;;;;;;;;;;5036334;28;20099;-87
2022/06/02 09:55:44;;;;;;;0.30;0.30;;;;;;;;;;5035766;28;20300;-88
2022/06/02 09:58:30;;;;;;;2.45;0.50;;;;;;;;;;5035286;28;20120;-87
2022/06/02 10:01:10;;;;;;;2.25;0.30;;;;;;;;;;5035482;28;20446;-88
2022/06/02 10:03:57;;;;;;;0.30;0.30;;;;;;;;;;5035407;28;20128;-87
2022/06/02 10:06:43;;;;;;;0.50;0.35;;;;;;;;;;5034942;28;20147;-85
2022/06/02 10:09:24;;;;;;;0.25;0.25;;;;;;;;;;5052682;28;20056;-88
2022/06/02 10:12:54;;;;;;;0.47;0.30;;;;;;;;;;5035356;28;20052;-85
2022/06/02 10:14:59;;;;;;;0.45;0.20;;;;;;;;;;5052291;28;20088;-87
2022/06/02 10:17:41;;;;;;;0.77;0.30;;;;;;;;;;5052483;28;20049;-85
2022/06/02 10:20:38;;;;;;;1.58;0.20;;;;;;;;;;5035281;28;20137;-86
2022/06/02 10:23:18;;;;;;;0.40;0.40;;;;;;;;;;5032312;28;20568;-87
2022/06/02 10:25:50;;;;;;;0.52;0.30;;;;;;;;;;5035223;28;20084;-88
2022/06/02 10:28:37;;;;;;;0.40;0.20;;;;;;;;;;5035459;28;20448;-84
2022/06/02 10:31:19;;;;;;;0.40;0.30;;;;;;;;;;5034863;28;20084;-87
2022/06/02 10:34:07;;;;;;;0.95;0.35;;;;;;;;;;5035702;28;20571;-84
2022/06/02 10:36:35;;;;;;;1.42;0.40;;;;;;;;;;5038619;28;20143;-87
2022/06/02 10:39:21;;;;;;;0.35;0.30;;;;;;;;;;5038813;28;20072;-86
2022/06/02 10:42:01;;;;;;;0.20;0.20;;;;;;;;;;5038503;28;20111;-87
2022/06/02 10:44:56;;;;;;;1.80;0.20;;;;;;;;;;5038656;28;20073;-87
2022/06/02 10:47:43;;;;;;;0.10;0.10;;;;;;;;;;5038938;28;20052;-87
2022/06/02 10:50:22;;;;;;;0.20;0.20;;;;;;;;;;5039021;28;20085;-88
2022/06/02 10:53:03;;;;;;;0.30;0.30;;;;;;;;;;5038278;28;20449;-87
2022/06/02 10:55:49;;;;;;;0.50;0.30;;;;;;;;;;5057915;28;20489;-88
2022/06/02 10:58:22;;;;;;;0.30;0.30;;;;;;;;;;5038862;28;20485;-86
2022/06/02 11:00:55;;;;;;;0.40;0.40;;;;;;;;;;5038004;28;20049;-84
2022/06/02 11:03:41;;;;;;;0.20;0.20;;;;;;;;;;5055554;28;20092;-85
2022/06/02 11:06:25;;;;;;;0.30;0.30;;;;;;;;;;5038288;28;20130;-88
2022/06/02 11:09:11;;;;;;;0.80;0.30;;;;;;;;;;5038020;28;20056;-85
2022/06/02 11:12:03;;;;;;;0.77;0.38;;;;;;;;;;5055140;28;20132;-86
2022/06/02 11:14:50;;;;;;;0.20;0.20;;;;;;;;;;5037556;28;20080;-86
2022/06/02 11:17:36;;;;;;;0.30;0.30;;;;;;;;;;5037836;28;20094;-87
2022/06/02 11:20:06;;;;;;;0.63;0.30;;;;;;;;;;5037390;28;20540;-85
2022/06/02 11:22:52;;;;;;;0.73;0.40;;;;;;;;;;5037864;28;20083;-87
2022/06/02 11:25:51;;;;;;;0.30;0.30;;;;;;;;;;5040251;28;20056;-86
2022/06/02 11:28:37;;;;;;;0.35;0.20;;;;;;;;;;5037339;28;20051;-87
2022/06/02 11:31:04;;;;;;;0.40;0.40;;;;;;;;;;5037465;28;20048;-85
2022/06/02 11:33:46;;;;;;;1.45;0.32;;;;;;;;;;5054820;28;20049;-88
2022/06/02 11:36:28;;;;;;;1.48;0.40;;;;;;;;;;5037212;28;20044;-86
2022/06/02 11:39:17;;;;;;;1.70;0.23;;;;;;;;;;5037606;28;20063;-87
2022/06/02 11:42:03;;;;;;;1.40;0.30;;;;;;;;;;5055035;28;20053;-87
2022/06/02 11:44:35;;;;;;;0.30;0.30;;;;;;;;;;5054458;28;20045;-87
2022/06/02 11:47:05;;;;;;;0.20;0.20;;;;;;;;;;5054136;28;20136;-89
2022/06/02 11:49:51;;;;;;;1.35;0.30;;;;;;;;;;5037206;28;20049;-87
2022/06/02 11:52:57;;;;;;;0.20;0.20;;;;;;;;;;5037301;28;20045;-88
2022/06/02 11:55:35;;;;;;;0.70;0.30;;;;;;;;;;4954070;28;20055;-87
2022/06/02 11:58:03;;;;;;;0.50;0.40;;;;;;;;;;4938651;29;20133;-86
2022/06/02 12:00:36;;;;;;;2.95;0.50;;;;;;;;;;5010540;28;20087;-84
2022/06/02 12:03:03;;;;;;;3.17;0.60;;;;;;;;;;5036686;28;20507;-87
2022/06/02 12:05:33;;;;;;;0.30;0.20;;;;;;;;;;5036516;28;20053;-90
2022/06/02 12:08:19;;;;;;;0.30;0.30;;;;;;;;;;5054481;28;20092;-87
2022/06/02 12:10:49;;;;;;;0.45;0.30;;;;;;;;;;5053790;28;20442;-85
2022/06/02 12:13:35;;;;;;;0.30;0.20;;;;;;;;;;5056246;28;20055;-86
2022/06/02 12:16:23;;;;;;;1.40;0.30;;;;;;;;;;5054630;28;20298;-86
2022/06/02 12:19:09;;;;;;;1.52;0.38;;;;;;;;;;5054516;28;20045;-88
2022/06/02 12:21:42;;;;;;;0.30;0.30;;;;;;;;;;5053324;28;20556;-83
2022/06/02 12:24:17;;;;;;;0.60;0.22;;;;;;;;;;5036226;28;20052;-87
2022/06/02 12:26:44;;;;;;;0.52;0.22;;;;;;;;;;5036452;28;20051;-87
2022/06/02 12:29:22;;;;;;;0.30;0.30;;;;;;;;;;5053619;28;20505;-84
2022/06/02 12:32:02;;;;;;;0.40;0.40;;;;;;;;;;5053947;28;20082;-87
2022/06/02 12:34:35;;;;;;;0.98;0.50;;;;;;;;;;5035909;28;20067;-86
2022/06/02 12:37:03;;;;;;;2.28;0.40;;;;;;;;;;5036180;28;20048;-88
2022/06/02 12:39:33;;;;;;;0.98;0.40;;;;;;;;;;5035769;28;20067;-86
2022/06/02 12:42:15;;;;;;;1.73;0.40;;;;;;;;;;5053539;28;20568;-88
2022/06/02 12:44:51;;;;;;;0.20;0.20;;;;;;;;;;5053402;28;20129;-87
2022/06/02 12:47:26;;;;;;;0.85;0.30;;;;;;;;;;5035973;28;20135;-88
2022/06/02 12:50:13;;;;;;;2.30;0.30;;;;;;;;;;5035429;28;20169;-85
2022/06/02 12:53:07;;;;;;;1.77;0.40;;;;;;;;;;5035629;28;20048;-85
2022/06/02 12:55:44;;;;;;;0.77;0.30;;;;;;;;;;5053345;28;20076;-85
2022/06/02 12:58:14;;;;;;;0.60;0.40;;;;;;;;;;5035149;28;20049;-85
2022/06/02 13:00:56;;;;;;;0.80;0.40;;;;;;;;;;5052982;28;20493;-91
2022/06/02 13:03:42;;;;;;;3.70;0.35;;;;;;;;;;5052929;28;20053;-88
2022/06/02 13:06:25;;;;;;;1.85;0.45;;;;;;;;;;5035406;28;20049;-84
2022/06/02 13:08:59;;;;;;;0.40;0.40;;;;;;;;;;5034985;28;20132;-86
2022/06/02 13:11:49;;;;;;;0.52;0.40;;;;;;;;;;5052574;28;20052;-87
2022/06/02 13:14:27;;;;;;;0.57;0.30;;;;;;;;;;5034753;28;20045;-86
2022/06/02 13:17:14;;;;;;;1.17;0.40;;;;;;;;;;5052707;28;20055;-83
2022/06/02 13:19:52;;;;;;;1.23;0.20;;;;;;;;;;5035116;28;20083;-84
2022/06/02 13:22:22;;;;;;;1.15;0.30;;;;;;;;;;5035147;28;20076;-87
2022/06/02 13:25:06;;;;;;;3.38;0.30;;;;;;;;;;5035255;28;20136;-85
2022/06/02 13:27:34;;;;;;;;;;;;;;;;;;5036023;28;20461;-86
2022/06/02 13:30:05;;;;;;;0.30;0.30;;;;;;;;;;5035343;28;19920;-86
2022/06/02 13:32:51;;;;;;;0.88;0.20;;;;;;;;;;5035070;28;20049;-85
2022/06/02 13:35:18;;;;;;;1.17;0.20;;;;;;;;;;5052735;28;20076;-84
2022/06/02 13:37:45;;;;;;;1.45;0.38;;;;;;;;;;5034823;28;20057;-84
2022/06/02 13:40:12;;;;;;;6.10;0.55;;;;;;;;;;5052769;28;20432;-87
2022/06/02 13:42:59;;;;;;;1.05;0.50;;;;;;;;;;5052686;28;20473;-86
2022/06/02 13:45:29;;;;;;;1.00;0.30;;;;;;;;;;5034612;28;20049;-85
2022/06/02 13:48:11;;;;;;;2.25;0.30;;;;;;;;;;5034885;28;20080;-87
2022/06/02 13:50:54;;;;;;;1.77;0.30;;;;;;;;;;5052265;28;20132;-87
2022/06/02 13:53:31;;;;;;;0.20;0.20;;;;;;;;;;5052545;28;20053;-86
2022/06/02 13:59:10;;;;;;;1.45;0.20;;;;;;;;;;5052273;28;20063;-85
2022/06/02 14:01:56;;;;;;;2.00;0.40;;;;;;;;;;5035082;28;20563;-88
2022/06/02 14:04:50;;;;;;;1.38;0.30;;;;;;;;;;5034577;28;20172;-84
2022/06/02 14:07:42;;;;;;;2.40;0.30;;;;;;;;;;5034710;28;20547;-85
2022/06/02 14:10:24;;;;;;;0.28;0.28;;;;;;;;;;5036424;28;20446;-87
2022/06/02 14:13:13;;;;;;;3.13;0.35;;;;;;;;;;5055796;28;20075;-85
2022/06/02 14:15:52;;;;;;;1.25;0.20;;;;;;;;;;5055832;28;20052;-86
2022/06/02 14:18:34;;;;;;;0.30;0.20;;;;;;;;;;5038069;28;20080;-86
2022/06/02 14:21:10;;;;;;;4.70;0.60;;;;;;;;;;5038354;28;20077;-86
2022/06/02 14:23:43;;;;;;;1.55;0.40;;;;;;;;;;5055999;28;20080;-86
2022/06/02 14:26:29;;;;;;;0.40;0.40;;;;;;;;;;5055873;28;20379;-88
2022/06/02 14:29:09;;;;;;;0.52;0.40;;;;;;;;;;5038647;28;20049;-87
2022/06/02 14:31:54;;;;;;;0.35;0.30;;;;;;;;;;5055692;28;20128;-86
2022/06/02 14:34:43;;;;;;;0.63;0.32;;;;;;;;;;5038192;28;20049;-86
2022/06/02 14:37:13;;;;;;;0.88;0.40;;;;;;;;;;5055909;28;20456;-85
2022/06/02 14:39:40;;;;;;;0.35;0.30;;;;;;;;;;5055792;28;20109;-85
2022/06/02 14:45:38;;;;;;;3.72;0.40;;;;;;;;;;5030808;28;20051;-85
2022/06/02 14:48:19;;;;;;;2.90;0.43;;;;;;;;;;5055286;28;20500;-86
2022/06/02 14:51:18;;;;;;;1.20;0.38;;;;;;;;;;5056634;28;20056;-86
2022/06/02 14:53:54;;;;;;;1.05;0.30;;;;;;;;;;5005868;28;20501;-85
2022/06/02 14:56:40;;;;;;;0.50;0.40;;;;;;;;;;5037524;28;20059;-85
2022/06/02 14:59:07;;;;;;;5.45;0.30;;;;;;;;;;5054815;28;20515;-84
2022/06/02 15:02:02;;;;;;;1.67;0.35;;;;;;;;;;5055097;28;20048;-87
2022/06/02 15:04:41;;;;;;;3.88;0.85;;;;;;;;;;5037216;28;20048;-86
2022/06/02 15:07:20;;;;;;;1.98;0.40;;;;;;;;;;5055217;28;20103;-85
2022/06/02 15:09:59;;;;;;;0.40;0.40;;;;;;;;;;5055476;28;20119;-86
2022/06/02 15:12:34;;;;;;;0.63;0.30;;;;;;;;;;5037325;28;20140;-85
2022/06/02 15:15:13;;;;;;;0.30;0.30;;;;;;;;;;5037617;28;20148;-85
2022/06/02 15:17:56;;;;;;;2.17;0.38;;;;;;;;;;5037310;28;20055;-85
2022/06/02 15:20:28;;;;;;;1.65;0.30;;;;;;;;;;5036854;28;20080;-85
2022/06/02 15:23:15;;;;;;;1.92;0.50;;;;;;;;;;5039818;28;20058;-83
2022/06/02 15:25:45;;;;;;;0.70;0.50;;;;;;;;;;5036666;28;20083;-83
2022/06/02 15:28:24;;;;;;;1.48;0.30;;;;;;;;;;5037582;28;20084;-85
2022/06/02 15:31:10;;;;;;;0.20;0.20;;;;;;;;;;5037099;28;20056;-86
2022/06/02 15:33:53;;;;;;;0.85;0.40;;;;;;;;;;5054678;28;20143;-85
2022/06/02 15:36:41;;;;;;;0.93;0.60;;;;;;;;;;5037154;28;20512;-86
2022/06/02 15:39:25;;;;;;;3.08;0.30;;;;;;;;;;5054632;28;20045;-82
2022/06/02 15:41:52;;;;;;;;;;;;;;;;;;5037451;28;20057;-86
2022/06/02 15:44:29;;;;;;;0.45;0.45;;;;;;;;;;5036815;28;19955;-85
2022/06/02 15:47:06;;;;;;;0.93;0.45;;;;;;;;;;5036822;28;20087;-85
2022/06/02 15:49:39;;;;;;;2.50;0.40;;;;;;;;;;5037018;28;20143;-85
2022/06/02 15:52:30;;;;;;;1.65;0.40;;;;;;;;;;5054316;28;20458;-85
2022/06/02 15:55:18;;;;;;;0.95;0.40;;;;;;;;;;5036918;28;20135;-85
2022/06/02 15:58:04;;;;;;;0.50;0.50;;;;;;;;;;5036804;28;20560;-85
2022/06/02 16:00:43;;;;;;;0.50;0.22;;;;;;;;;;5036779;28;20129;-85
2022/06/02 16:03:13;;;;;;;6.03;0.30;;;;;;;;;;5037058;28;20053;-84
2022/06/02 16:06:11;;;;;;;0.30;0.30;;;;;;;;;;5036397;28;20045;-85
2022/06/02 16:08:43;;;;;;;0.57;0.50;;;;;;;;;;5056011;28;20477;-86
2022/06/02 16:11:29;;;;;;;0.52;0.38;;;;;;;;;;5036434;28;20128;-84